sensor_id;sensor_type;location;lat;lon;timestamp;temperature;humidity
5154;DHT22;2595;53.584;10.084;2023-03-21T00:00:53;9.00;99.90
5154;DHT22;2595;53.584;10.084;2023-03-21T00:03:19;9.00;99.90
5154;DHT22;2595;53.584;10.084;2023-03-21T00:05:45;9.00;99.90
5154;DHT22;2595;53.584;10.084;2023-03-21T00:08:14;9.00;99.90
5154;DHT22;2595;53.584;10.084;2023-03-21T00:10:40;9.00;99.90
5154;DHT22;2595;53.584;10.084;2023-03-21T00:13:06;9.00;99.90
5154;DHT22;2595;53.584;10.084;2023-03-21T00:15:32;9.00;99.90
5154;DHT22;2595;53.584;10.084;2023-03-21T00:17:58;9.00;99.90
5154;DHT22;2595;53.584;10.084;2023-03-21T00:20:29;9.00;99.90
5154;DHT22;2595;53.584;10.084;2023-03-21T00:22:55;9.00;99.90
5154;DHT22;2595;53.584;10.084;2023-03-21T00:25:20;9.00;99.90
5154;DHT22;2595;53.584;10.084;2023-03-21T00:27:46;8.90;99.90
5154;DHT22;2595;53.584;10.084;2023-03-21T00:30:13;9.00;99.90
5154;DHT22;2595;53.584;10.084;2023-03-21T00:32:39;9.00;99.90
5154;DHT22;2595;53.584;10.084;2023-03-21T00:35:06;9.00;99.90
5154;DHT22;2595;53.584;10.084;2023-03-21T00:37:32;9.00;99.90
5154;DHT22;2595;53.584;10.084;2023-03-21T00:39:57;9.00;99.90
5154;DHT22;2595;53.584;10.084;2023-03-21T00:42:23;8.90;99.90
5154;DHT22;2595;53.584;10.084;2023-03-21T00:44:48;8.90;99.90
5154;DHT22;2595;53.584;10.084;2023-03-21T00:47:14;8.90;99.90
5154;DHT22;2595;53.584;10.084;2023-03-21T00:49:40;9.00;99.90
5154;DHT22;2595;53.584;10.084;2023-03-21T00:52:07;9.00;99.90
5154;DHT22;2595;53.584;10.084;2023-03-21T00:54:35;9.00;99.90
5154;DHT22;2595;53.584;10.084;2023-03-21T00:57:02;9.00;99.90
5154;DHT22;2595;53.584;10.084;2023-03-21T00:59:28;9.00;99.90
5154;DHT22;2595;53.584;10.084;2023-03-21T01:01:54;9.00;99.90
5154;DHT22;2595;53.584;10.084;2023-03-21T01:04:20;9.00;99.90
5154;DHT22;2595;53.584;10.084;2023-03-21T01:06:51;9.00;99.90
5154;DHT22;2595;53.584;10.084;2023-03-21T01:09:19;9.00;99.90
5154;DHT22;2595;53.584;10.084;2023-03-21T01:11:46;8.90;99.90
5154;DHT22;2595;53.584;10.084;2023-03-21T01:14:14;8.90;99.90
5154;DHT22;2595;53.584;10.084;2023-03-21T01:16:40;8.90;99.90
5154;DHT22;2595;53.584;10.084;2023-03-21T01:19:07;8.90;99.90
5154;DHT22;2595;53.584;10.084;2023-03-21T01:21:33;8.90;99.90
5154;DHT22;2595;53.584;10.084;2023-03-21T01:23:59;8.90;99.90
5154;DHT22;2595;53.584;10.084;2023-03-21T01:26:26;8.90;99.90
5154;DHT22;2595;53.584;10.084;2023-03-21T01:28:52;8.90;99.90
5154;DHT22;2595;53.584;10.084;2023-03-21T01:31:18;8.90;99.90
5154;DHT22;2595;53.584;10.084;2023-03-21T01:33:43;8.90;99.90
5154;DHT22;2595;53.584;10.084;2023-03-21T01:36:20;8.90;99.90
5154;DHT22;2595;53.584;10.084;2023-03-21T01:38:46;8.90;99.90
5154;DHT22;2595;53.584;10.084;2023-03-21T01:41:36;8.90;99.90
5154;DHT22;2595;53.584;10.084;2023-03-21T01:44:03;9.00;99.90
5154;DHT22;2595;53.584;10.084;2023-03-21T01:46:42;9.00;99.90
5154;DHT22;2595;53.584;10.084;2023-03-21T01:51:46;9.00;99.90
5154;DHT22;2595;53.584;10.084;2023-03-21T01:54:19;9.00;99.90
5154;DHT22;2595;53.584;10.084;2023-03-21T01:56:48;9.00;99.90
5154;DHT22;2595;53.584;10.084;2023-03-21T01:59:33;9.00;99.90
5154;DHT22;2595;53.584;10.084;2023-03-21T02:02:03;9.10;99.90
5154;DHT22;2595;53.584;10.084;2023-03-21T02:04:33;9.00;99.90
5154;DHT22;2595;53.584;10.084;2023-03-21T02:07:07;9.00;99.90
5154;DHT22;2595;53.584;10.084;2023-03-21T02:09:36;9.10;99.90
5154;DHT22;2595;53.584;10.084;2023-03-21T02:12:03;9.10;99.90
5154;DHT22;2595;53.584;10.084;2023-03-21T02:14:31;9.10;99.90
5154;DHT22;2595;53.584;10.084;2023-03-21T02:20:21;9.00;99.90
5154;DHT22;2595;53.584;10.084;2023-03-21T02:25:57;9.00;99.90
5154;DHT22;2595;53.584;10.084;2023-03-21T02:31:35;9.00;99.90
5154;DHT22;2595;53.584;10.084;2023-03-21T02:36:59;9.00;99.90
5154;DHT22;2595;53.584;10.084;2023-03-21T02:42:38;9.00;99.90
5154;DHT22;2595;53.584;10.084;2023-03-21T02:45:23;9.00;99.90
5154;DHT22;2595;53.584;10.084;2023-03-21T02:48:00;9.10;99.90
5154;DHT22;2595;53.584;10.084;2023-03-21T02:50:35;9.10;99.90
5154;DHT22;2595;53.584;10.084;2023-03-21T02:53:03;9.10;99.90
5154;DHT22;2595;53.584;10.084;2023-03-21T02:55:31;9.10;99.90
5154;DHT22;2595;53.584;10.084;2023-03-21T02:57:58;9.10;99.90
5154;DHT22;2595;53.584;10.084;2023-03-21T03:00:30;9.10;99.90
5154;DHT22;2595;53.584;10.084;2023-03-21T03:02:57;9.10;99.90
5154;DHT22;2595;53.584;10.084;2023-03-21T03:05:29;9.10;99.90
5154;DHT22;2595;53.584;10.084;2023-03-21T03:13:26;9.00;99.90
5154;DHT22;2595;53.584;10.084;2023-03-21T03:19:32;9.00;99.90
5154;DHT22;2595;53.584;10.084;2023-03-21T03:22:12;9.00;99.90
5154;DHT22;2595;53.584;10.084;2023-03-21T03:27:23;9.10;99.90
5154;DHT22;2595;53.584;10.084;2023-03-21T03:29:51;9.10;99.90
5154;DHT22;2595;53.584;10.084;2023-03-21T03:32:25;9.10;99.90
5154;DHT22;2595;53.584;10.084;2023-03-21T03:34:55;9.10;99.90
5154;DHT22;2595;53.584;10.084;2023-03-21T03:37:26;9.10;99.90
5154;DHT22;2595;53.584;10.084;2023-03-21T03:40:06;9.10;99.90
5154;DHT22;2595;53.584;10.084;2023-03-21T03:42:58;9.10;99.90
5154;DHT22;2595;53.584;10.084;2023-03-21T03:45:32;9.10;99.90
5154;DHT22;2595;53.584;10.084;2023-03-21T03:50:46;9.10;99.90
5154;DHT22;2595;53.584;10.084;2023-03-21T03:53:27;9.20;99.90
5154;DHT22;2595;53.584;10.084;2023-03-21T03:55:55;9.10;99.90
5154;DHT22;2595;53.584;10.084;2023-03-21T03:58:23;9.10;99.90
5154;DHT22;2595;53.584;10.084;2023-03-21T04:00:50;9.10;99.90
5154;DHT22;2595;53.584;10.084;2023-03-21T04:03:15;9.10;99.90
5154;DHT22;2595;53.584;10.084;2023-03-21T04:05:42;9.10;99.90
5154;DHT22;2595;53.584;10.084;2023-03-21T04:08:11;9.10;99.90
5154;DHT22;2595;53.584;10.084;2023-03-21T04:10:38;9.10;99.90
5154;DHT22;2595;53.584;10.084;2023-03-21T04:13:04;9.10;99.90
5154;DHT22;2595;53.584;10.084;2023-03-21T04:15:29;9.10;99.90
5154;DHT22;2595;53.584;10.084;2023-03-21T04:17:55;9.10;99.90
5154;DHT22;2595;53.584;10.084;2023-03-21T04:20:20;9.10;99.90
5154;DHT22;2595;53.584;10.084;2023-03-21T04:22:46;9.10;99.90
5154;DHT22;2595;53.584;10.084;2023-03-21T04:25:13;9.20;99.90
5154;DHT22;2595;53.584;10.084;2023-03-21T04:27:39;9.10;99.90
5154;DHT22;2595;53.584;10.084;2023-03-21T04:30:05;9.10;99.90
5154;DHT22;2595;53.584;10.084;2023-03-21T04:32:32;9.10;99.90
5154;DHT22;2595;53.584;10.084;2023-03-21T04:34:59;9.10;99.90
5154;DHT22;2595;53.584;10.084;2023-03-21T04:37:25;9.10;99.90
5154;DHT22;2595;53.584;10.084;2023-03-21T04:39:52;9.10;99.90
5154;DHT22;2595;53.584;10.084;2023-03-21T04:42:18;9.10;99.90
5154;DHT22;2595;53.584;10.084;2023-03-21T04:44:45;9.10;99.90
5154;DHT22;2595;53.584;10.084;2023-03-21T04:47:11;9.10;99.90
5154;DHT22;2595;53.584;10.084;2023-03-21T04:49:37;9.20;99.90
5154;DHT22;2595;53.584;10.084;2023-03-21T04:52:04;9.20;99.90
5154;DHT22;2595;53.584;10.084;2023-03-21T04:54:30;9.20;99.90
5154;DHT22;2595;53.584;10.084;2023-03-21T04:56:57;9.20;99.90
5154;DHT22;2595;53.584;10.084;2023-03-21T04:59:22;9.20;99.90
5154;DHT22;2595;53.584;10.084;2023-03-21T05:01:49;9.20;99.90
5154;DHT22;2595;53.584;10.084;2023-03-21T05:04:14;9.20;99.90
5154;DHT22;2595;53.584;10.084;2023-03-21T05:06:40;9.20;99.90
5154;DHT22;2595;53.584;10.084;2023-03-21T05:09:10;9.20;99.90
5154;DHT22;2595;53.584;10.084;2023-03-21T05:11:37;9.20;99.90
5154;DHT22;2595;53.584;10.084;2023-03-21T05:14:06;9.20;99.90
5154;DHT22;2595;53.584;10.084;2023-03-21T05:16:32;9.20;99.90
5154;DHT22;2595;53.584;10.084;2023-03-21T05:19:00;9.20;99.90
5154;DHT22;2595;53.584;10.084;2023-03-21T05:21:29;9.20;99.90
5154;DHT22;2595;53.584;10.084;2023-03-21T05:23:58;9.20;99.90
5154;DHT22;2595;53.584;10.084;2023-03-21T05:26:27;9.20;99.90
5154;DHT22;2595;53.584;10.084;2023-03-21T05:28:53;9.20;99.90
5154;DHT22;2595;53.584;10.084;2023-03-21T05:31:20;9.20;99.90
5154;DHT22;2595;53.584;10.084;2023-03-21T05:33:46;9.20;99.90
5154;DHT22;2595;53.584;10.084;2023-03-21T05:36:13;9.20;99.90
5154;DHT22;2595;53.584;10.084;2023-03-21T05:38:39;9.20;99.90
5154;DHT22;2595;53.584;10.084;2023-03-21T05:41:10;9.10;99.90
5154;DHT22;2595;53.584;10.084;2023-03-21T05:43:36;9.10;99.90
5154;DHT22;2595;53.584;10.084;2023-03-21T05:46:02;9.20;99.90
5154;DHT22;2595;53.584;10.084;2023-03-21T05:48:27;9.20;99.90
5154;DHT22;2595;53.584;10.084;2023-03-21T05:50:53;9.20;99.90
5154;DHT22;2595;53.584;10.084;2023-03-21T05:53:19;9.10;99.90
5154;DHT22;2595;53.584;10.084;2023-03-21T05:55:45;9.20;99.90
5154;DHT22;2595;53.584;10.084;2023-03-21T05:58:11;9.10;99.90
5154;DHT22;2595;53.584;10.084;2023-03-21T06:00:36;9.20;99.90
5154;DHT22;2595;53.584;10.084;2023-03-21T06:03:02;9.20;99.90
5154;DHT22;2595;53.584;10.084;2023-03-21T06:05:28;9.20;99.90
5154;DHT22;2595;53.584;10.084;2023-03-21T06:07:53;9.20;99.90
5154;DHT22;2595;53.584;10.084;2023-03-21T06:10:19;9.20;99.90
5154;DHT22;2595;53.584;10.084;2023-03-21T06:12:44;9.20;99.90
5154;DHT22;2595;53.584;10.084;2023-03-21T06:15:11;9.20;99.90
5154;DHT22;2595;53.584;10.084;2023-03-21T06:17:36;9.20;99.90
5154;DHT22;2595;53.584;10.084;2023-03-21T06:20:03;9.20;99.90
5154;DHT22;2595;53.584;10.084;2023-03-21T06:22:30;9.20;99.90
5154;DHT22;2595;53.584;10.084;2023-03-21T06:24:56;9.30;99.90
5154;DHT22;2595;53.584;10.084;2023-03-21T06:27:21;9.20;99.90
5154;DHT22;2595;53.584;10.084;2023-03-21T06:29:47;9.30;99.90
5154;DHT22;2595;53.584;10.084;2023-03-21T06:32:13;9.30;99.90
5154;DHT22;2595;53.584;10.084;2023-03-21T06:34:38;9.30;99.90
5154;DHT22;2595;53.584;10.084;2023-03-21T06:37:04;9.20;99.90
5154;DHT22;2595;53.584;10.084;2023-03-21T06:39:30;9.20;99.90
5154;DHT22;2595;53.584;10.084;2023-03-21T06:41:57;9.20;99.90
5154;DHT22;2595;53.584;10.084;2023-03-21T06:44:23;9.20;99.90
5154;DHT22;2595;53.584;10.084;2023-03-21T06:46:49;9.20;99.90
5154;DHT22;2595;53.584;10.084;2023-03-21T06:49:16;9.20;99.90
5154;DHT22;2595;53.584;10.084;2023-03-21T06:51:41;9.20;99.90
5154;DHT22;2595;53.584;10.084;2023-03-21T06:54:07;9.20;99.90
5154;DHT22;2595;53.584;10.084;2023-03-21T06:56:33;9.20;99.90
5154;DHT22;2595;53.584;10.084;2023-03-21T06:58:58;9.20;99.90
5154;DHT22;2595;53.584;10.084;2023-03-21T07:01:24;9.30;99.90
5154;DHT22;2595;53.584;10.084;2023-03-21T07:03:52;9.20;99.90
5154;DHT22;2595;53.584;10.084;2023-03-21T07:06:18;9.20;99.90
5154;DHT22;2595;53.584;10.084;2023-03-21T07:08:44;9.30;99.90
5154;DHT22;2595;53.584;10.084;2023-03-21T07:11:12;9.30;99.90
5154;DHT22;2595;53.584;10.084;2023-03-21T07:13:37;9.30;99.90
5154;DHT22;2595;53.584;10.084;2023-03-21T07:16:03;9.30;99.90
5154;DHT22;2595;53.584;10.084;2023-03-21T07:18:30;9.30;99.90
5154;DHT22;2595;53.584;10.084;2023-03-21T07:20:55;9.40;99.90
5154;DHT22;2595;53.584;10.084;2023-03-21T07:23:23;9.30;99.90
5154;DHT22;2595;53.584;10.084;2023-03-21T07:25:50;9.40;99.90
5154;DHT22;2595;53.584;10.084;2023-03-21T07:28:17;9.40;99.90
5154;DHT22;2595;53.584;10.084;2023-03-21T07:30:43;9.40;99.90
5154;DHT22;2595;53.584;10.084;2023-03-21T07:33:09;9.40;99.90
5154;DHT22;2595;53.584;10.084;2023-03-21T07:35:34;9.40;99.90
5154;DHT22;2595;53.584;10.084;2023-03-21T07:38:02;9.40;99.90
5154;DHT22;2595;53.584;10.084;2023-03-21T07:40:28;9.40;99.90
5154;DHT22;2595;53.584;10.084;2023-03-21T07:42:54;9.40;99.90
5154;DHT22;2595;53.584;10.084;2023-03-21T07:45:19;9.40;99.90
5154;DHT22;2595;53.584;10.084;2023-03-21T07:47:49;9.40;99.90
5154;DHT22;2595;53.584;10.084;2023-03-21T07:50:16;9.40;99.90
5154;DHT22;2595;53.584;10.084;2023-03-21T07:52:41;9.40;99.90
5154;DHT22;2595;53.584;10.084;2023-03-21T07:55:08;9.50;99.90
5154;DHT22;2595;53.584;10.084;2023-03-21T07:57:33;9.50;99.90
5154;DHT22;2595;53.584;10.084;2023-03-21T07:59:59;9.50;99.90
5154;DHT22;2595;53.584;10.084;2023-03-21T08:02:25;9.50;99.90
5154;DHT22;2595;53.584;10.084;2023-03-21T08:04:51;9.50;99.90
5154;DHT22;2595;53.584;10.084;2023-03-21T08:07:17;9.50;99.90
5154;DHT22;2595;53.584;10.084;2023-03-21T08:09:43;9.50;99.90
5154;DHT22;2595;53.584;10.084;2023-03-21T08:12:10;9.50;99.90
5154;DHT22;2595;53.584;10.084;2023-03-21T08:14:36;9.50;99.90
5154;DHT22;2595;53.584;10.084;2023-03-21T08:17:03;9.40;99.90
5154;DHT22;2595;53.584;10.084;2023-03-21T08:19:28;9.50;99.90
5154;DHT22;2595;53.584;10.084;2023-03-21T08:21:55;9.50;99.90
5154;DHT22;2595;53.584;10.084;2023-03-21T08:24:24;9.50;99.90
5154;DHT22;2595;53.584;10.084;2023-03-21T08:26:50;9.50;99.90
5154;DHT22;2595;53.584;10.084;2023-03-21T08:29:15;9.50;99.90
5154;DHT22;2595;53.584;10.084;2023-03-21T08:31:41;9.50;99.90
5154;DHT22;2595;53.584;10.084;2023-03-21T08:34:07;9.50;99.90
5154;DHT22;2595;53.584;10.084;2023-03-21T08:36:35;9.50;99.90
5154;DHT22;2595;53.584;10.084;2023-03-21T08:39:02;9.60;99.90
5154;DHT22;2595;53.584;10.084;2023-03-21T08:41:32;9.60;99.90
5154;DHT22;2595;53.584;10.084;2023-03-21T08:43:58;9.60;99.90
5154;DHT22;2595;53.584;10.084;2023-03-21T08:46:24;9.60;99.90
5154;DHT22;2595;53.584;10.084;2023-03-21T08:48:49;9.60;99.90
5154;DHT22;2595;53.584;10.084;2023-03-21T08:51:15;9.60;99.90
5154;DHT22;2595;53.584;10.084;2023-03-21T08:53:41;9.60;99.90
5154;DHT22;2595;53.584;10.084;2023-03-21T08:56:09;9.70;99.90
5154;DHT22;2595;53.584;10.084;2023-03-21T08:58:36;9.70;99.90
5154;DHT22;2595;53.584;10.084;2023-03-21T09:01:02;9.60;99.90
5154;DHT22;2595;53.584;10.084;2023-03-21T09:03:28;9.60;99.90
5154;DHT22;2595;53.584;10.084;2023-03-21T09:05:54;9.60;99.90
5154;DHT22;2595;53.584;10.084;2023-03-21T09:08:20;9.70;99.90
5154;DHT22;2595;53.584;10.084;2023-03-21T09:10:56;9.70;99.90
5154;DHT22;2595;53.584;10.084;2023-03-21T09:13:23;9.70;99.90
5154;DHT22;2595;53.584;10.084;2023-03-21T09:15:49;9.70;99.90
5154;DHT22;2595;53.584;10.084;2023-03-21T09:18:15;9.70;99.90
5154;DHT22;2595;53.584;10.084;2023-03-21T09:20:43;9.70;99.90
5154;DHT22;2595;53.584;10.084;2023-03-21T09:23:10;9.70;99.90
5154;DHT22;2595;53.584;10.084;2023-03-21T09:25:37;9.70;99.90
5154;DHT22;2595;53.584;10.084;2023-03-21T09:28:04;9.80;99.90
5154;DHT22;2595;53.584;10.084;2023-03-21T09:30:31;9.80;99.90
5154;DHT22;2595;53.584;10.084;2023-03-21T09:33:04;9.80;99.90
5154;DHT22;2595;53.584;10.084;2023-03-21T09:35:33;9.80;99.90
5154;DHT22;2595;53.584;10.084;2023-03-21T09:37:59;9.80;99.90
5154;DHT22;2595;53.584;10.084;2023-03-21T09:40:47;9.80;99.90
5154;DHT22;2595;53.584;10.084;2023-03-21T09:43:37;9.80;99.90
5154;DHT22;2595;53.584;10.084;2023-03-21T09:49:24;9.80;99.90
5154;DHT22;2595;53.584;10.084;2023-03-21T09:51:57;9.90;99.90
5154;DHT22;2595;53.584;10.084;2023-03-21T09:54:30;9.90;99.90
5154;DHT22;2595;53.584;10.084;2023-03-21T09:57:02;9.90;99.90
5154;DHT22;2595;53.584;10.084;2023-03-21T09:59:37;9.90;99.90
5154;DHT22;2595;53.584;10.084;2023-03-21T10:02:31;10.00;99.90
5154;DHT22;2595;53.584;10.084;2023-03-21T10:05:01;10.00;99.90
5154;DHT22;2595;53.584;10.084;2023-03-21T10:07:39;10.00;99.90
5154;DHT22;2595;53.584;10.084;2023-03-21T10:10:19;10.00;99.90
5154;DHT22;2595;53.584;10.084;2023-03-21T10:12:48;10.00;99.90
5154;DHT22;2595;53.584;10.084;2023-03-21T10:15:18;10.00;99.90
5154;DHT22;2595;53.584;10.084;2023-03-21T10:18:04;10.10;99.90
5154;DHT22;2595;53.584;10.084;2023-03-21T10:20:33;10.00;99.90
5154;DHT22;2595;53.584;10.084;2023-03-21T10:23:02;10.10;99.90
5154;DHT22;2595;53.584;10.084;2023-03-21T10:25:32;10.10;99.90
5154;DHT22;2595;53.584;10.084;2023-03-21T10:28:00;10.10;99.90
5154;DHT22;2595;53.584;10.084;2023-03-21T10:30:39;10.10;99.90
5154;DHT22;2595;53.584;10.084;2023-03-21T10:33:10;10.10;99.90
5154;DHT22;2595;53.584;10.084;2023-03-21T10:35:38;10.20;99.90
5154;DHT22;2595;53.584;10.084;2023-03-21T10:38:06;10.20;99.90
5154;DHT22;2595;53.584;10.084;2023-03-21T10:40:34;10.20;99.90
5154;DHT22;2595;53.584;10.084;2023-03-21T10:43:38;10.20;99.90
5154;DHT22;2595;53.584;10.084;2023-03-21T10:48:37;10.10;99.90
5154;DHT22;2595;53.584;10.084;2023-03-21T10:51:05;10.10;99.90
5154;DHT22;2595;53.584;10.084;2023-03-21T10:53:36;10.20;99.90
5154;DHT22;2595;53.584;10.084;2023-03-21T10:56:06;10.20;99.90
5154;DHT22;2595;53.584;10.084;2023-03-21T10:58:37;10.20;99.90
5154;DHT22;2595;53.584;10.084;2023-03-21T11:01:06;10.20;99.90
5154;DHT22;2595;53.584;10.084;2023-03-21T11:03:36;10.20;99.90
5154;DHT22;2595;53.584;10.084;2023-03-21T11:06:07;10.20;99.90
5154;DHT22;2595;53.584;10.084;2023-03-21T11:08:44;10.20;99.90
5154;DHT22;2595;53.584;10.084;2023-03-21T11:11:19;10.20;99.90
5154;DHT22;2595;53.584;10.084;2023-03-21T11:13:46;10.20;99.90
5154;DHT22;2595;53.584;10.084;2023-03-21T11:16:44;10.20;99.90
5154;DHT22;2595;53.584;10.084;2023-03-21T11:19:28;10.20;99.90
5154;DHT22;2595;53.584;10.084;2023-03-21T11:22:04;10.20;99.90
5154;DHT22;2595;53.584;10.084;2023-03-21T11:24:30;10.20;99.90
5154;DHT22;2595;53.584;10.084;2023-03-21T11:26:57;10.20;99.90
5154;DHT22;2595;53.584;10.084;2023-03-21T11:31:51;10.20;99.90
5154;DHT22;2595;53.584;10.084;2023-03-21T11:37:37;10.20;99.90
5154;DHT22;2595;53.584;10.084;2023-03-21T11:40:22;10.20;99.90
5154;DHT22;2595;53.584;10.084;2023-03-21T11:42:53;10.20;99.90
5154;DHT22;2595;53.584;10.084;2023-03-21T11:45:23;10.20;99.90
5154;DHT22;2595;53.584;10.084;2023-03-21T11:47:51;10.30;99.90
5154;DHT22;2595;53.584;10.084;2023-03-21T11:55:31;10.30;99.90
5154;DHT22;2595;53.584;10.084;2023-03-21T12:04:03;10.30;99.90
5154;DHT22;2595;53.584;10.084;2023-03-21T12:06:45;10.30;99.90
5154;DHT22;2595;53.584;10.084;2023-03-21T12:09:37;10.30;99.90
5154;DHT22;2595;53.584;10.084;2023-03-21T12:34:07;10.50;99.90
5154;DHT22;2595;53.584;10.084;2023-03-21T12:37:03;10.50;99.90
5154;DHT22;2595;53.584;10.084;2023-03-21T12:42:45;10.50;99.90
5154;DHT22;2595;53.584;10.084;2023-03-21T12:44:55;10.50;99.90
5154;DHT22;2595;53.584;10.084;2023-03-21T12:47:25;10.50;99.90
5154;DHT22;2595;53.584;10.084;2023-03-21T12:50:01;10.50;99.90
5154;DHT22;2595;53.584;10.084;2023-03-21T12:52:37;10.50;99.90
5154;DHT22;2595;53.584;10.084;2023-03-21T12:55:13;10.50;99.90
5154;DHT22;2595;53.584;10.084;2023-03-21T12:57:52;10.50;99.90
5154;DHT22;2595;53.584;10.084;2023-03-21T13:00:24;10.50;99.90
5154;DHT22;2595;53.584;10.084;2023-03-21T13:03:13;10.50;99.90
5154;DHT22;2595;53.584;10.084;2023-03-21T13:05:49;10.50;99.90
5154;DHT22;2595;53.584;10.084;2023-03-21T13:11:13;10.50;99.90
5154;DHT22;2595;53.584;10.084;2023-03-21T13:16:35;10.50;99.90
5154;DHT22;2595;53.584;10.084;2023-03-21T13:24:41;10.60;99.90
5154;DHT22;2595;53.584;10.084;2023-03-21T13:27:25;10.60;99.90
5154;DHT22;2595;53.584;10.084;2023-03-21T13:29:58;10.60;99.90
5154;DHT22;2595;53.584;10.084;2023-03-21T13:32:41;10.60;99.90
5154;DHT22;2595;53.584;10.084;2023-03-21T13:35:21;10.60;99.90
5154;DHT22;2595;53.584;10.084;2023-03-21T13:38:02;10.60;99.90
5154;DHT22;2595;53.584;10.084;2023-03-21T13:40:36;10.60;99.90
5154;DHT22;2595;53.584;10.084;2023-03-21T13:43:02;10.60;99.90
5154;DHT22;2595;53.584;10.084;2023-03-21T13:45:45;10.60;99.90
5154;DHT22;2595;53.584;10.084;2023-03-21T13:48:31;10.60;99.90
5154;DHT22;2595;53.584;10.084;2023-03-21T13:51:05;10.60;99.90
5154;DHT22;2595;53.584;10.084;2023-03-21T13:53:41;10.60;99.90
5154;DHT22;2595;53.584;10.084;2023-03-21T13:59:00;10.60;99.90
5154;DHT22;2595;53.584;10.084;2023-03-21T14:01:31;10.60;99.90
5154;DHT22;2595;53.584;10.084;2023-03-21T14:06:53;10.60;99.90
5154;DHT22;2595;53.584;10.084;2023-03-21T14:09:43;10.60;99.90
5154;DHT22;2595;53.584;10.084;2023-03-21T14:12:14;10.60;99.90
5154;DHT22;2595;53.584;10.084;2023-03-21T14:14:46;10.60;99.90
5154;DHT22;2595;53.584;10.084;2023-03-21T14:17:22;10.60;99.90
5154;DHT22;2595;53.584;10.084;2023-03-21T14:20:21;10.60;99.90
5154;DHT22;2595;53.584;10.084;2023-03-21T14:22:48;10.60;99.90
5154;DHT22;2595;53.584;10.084;2023-03-21T14:25:17;10.60;99.90
5154;DHT22;2595;53.584;10.084;2023-03-21T14:27:54;10.60;99.90
5154;DHT22;2595;53.584;10.084;2023-03-21T14:30:33;10.60;99.90
5154;DHT22;2595;53.584;10.084;2023-03-21T14:35:49;10.60;99.90
5154;DHT22;2595;53.584;10.084;2023-03-21T14:38:33;10.60;99.90
5154;DHT22;2595;53.584;10.084;2023-03-21T14:40:58;10.60;99.90
5154;DHT22;2595;53.584;10.084;2023-03-21T14:43:25;10.60;99.90
5154;DHT22;2595;53.584;10.084;2023-03-21T14:45:53;10.60;99.90
5154;DHT22;2595;53.584;10.084;2023-03-21T14:48:20;10.60;99.90
5154;DHT22;2595;53.584;10.084;2023-03-21T14:50:51;10.60;99.90
5154;DHT22;2595;53.584;10.084;2023-03-21T14:53:25;10.60;99.90
5154;DHT22;2595;53.584;10.084;2023-03-21T14:56:06;10.60;99.90
5154;DHT22;2595;53.584;10.084;2023-03-21T14:58:37;10.60;99.90
5154;DHT22;2595;53.584;10.084;2023-03-21T15:01:05;10.60;99.90
5154;DHT22;2595;53.584;10.084;2023-03-21T15:03:33;10.60;99.90
5154;DHT22;2595;53.584;10.084;2023-03-21T15:05:59;10.60;99.90
5154;DHT22;2595;53.584;10.084;2023-03-21T15:08:27;10.60;99.90
5154;DHT22;2595;53.584;10.084;2023-03-21T15:13:27;10.60;99.90
5154;DHT22;2595;53.584;10.084;2023-03-21T15:15:53;10.60;99.90
5154;DHT22;2595;53.584;10.084;2023-03-21T15:18:27;10.60;99.90
5154;DHT22;2595;53.584;10.084;2023-03-21T15:20:54;10.60;99.90
5154;DHT22;2595;53.584;10.084;2023-03-21T15:25:53;10.60;99.90
5154;DHT22;2595;53.584;10.084;2023-03-21T15:28:19;10.60;99.90
5154;DHT22;2595;53.584;10.084;2023-03-21T15:30:50;10.60;99.90
5154;DHT22;2595;53.584;10.084;2023-03-21T15:33:17;10.60;99.90
5154;DHT22;2595;53.584;10.084;2023-03-21T15:35:49;10.60;99.90
5154;DHT22;2595;53.584;10.084;2023-03-21T15:38:27;10.60;99.90
5154;DHT22;2595;53.584;10.084;2023-03-21T15:44:01;10.60;99.90
5154;DHT22;2595;53.584;10.084;2023-03-21T15:46:45;10.60;99.90
5154;DHT22;2595;53.584;10.084;2023-03-21T15:51:48;10.50;99.90
5154;DHT22;2595;53.584;10.084;2023-03-21T15:54:20;10.50;99.90
5154;DHT22;2595;53.584;10.084;2023-03-21T15:56:52;10.50;99.90
5154;DHT22;2595;53.584;10.084;2023-03-21T15:59:19;10.50;99.90
5154;DHT22;2595;53.584;10.084;2023-03-21T16:01:48;10.50;99.90
5154;DHT22;2595;53.584;10.084;2023-03-21T16:04:16;10.50;99.90
5154;DHT22;2595;53.584;10.084;2023-03-21T16:07:14;10.50;99.90
5154;DHT22;2595;53.584;10.084;2023-03-21T16:09:44;10.50;99.90
5154;DHT22;2595;53.584;10.084;2023-03-21T16:12:13;10.50;99.90
5154;DHT22;2595;53.584;10.084;2023-03-21T16:14:39;10.40;99.90
5154;DHT22;2595;53.584;10.084;2023-03-21T16:19:50;10.40;99.90
5154;DHT22;2595;53.584;10.084;2023-03-21T16:22:16;10.40;99.90
5154;DHT22;2595;53.584;10.084;2023-03-21T16:24:41;10.40;99.90
5154;DHT22;2595;53.584;10.084;2023-03-21T16:27:10;10.40;99.90
5154;DHT22;2595;53.584;10.084;2023-03-21T16:29:36;10.40;99.90
5154;DHT22;2595;53.584;10.084;2023-03-21T16:32:02;10.40;99.90
5154;DHT22;2595;53.584;10.084;2023-03-21T16:34:30;10.40;99.90
5154;DHT22;2595;53.584;10.084;2023-03-21T16:36:56;10.30;99.90
5154;DHT22;2595;53.584;10.084;2023-03-21T16:39:23;10.40;99.90
5154;DHT22;2595;53.584;10.084;2023-03-21T16:41:51;10.30;99.90
5154;DHT22;2595;53.584;10.084;2023-03-21T16:44:18;10.30;99.90
5154;DHT22;2595;53.584;10.084;2023-03-21T16:46:44;10.30;99.90
5154;DHT22;2595;53.584;10.084;2023-03-21T16:49:37;10.30;99.90
5154;DHT22;2595;53.584;10.084;2023-03-21T16:52:03;10.30;99.90
5154;DHT22;2595;53.584;10.084;2023-03-21T16:54:29;10.30;99.90
5154;DHT22;2595;53.584;10.084;2023-03-21T16:56:55;10.30;99.90
5154;DHT22;2595;53.584;10.084;2023-03-21T16:59:23;10.30;99.90
5154;DHT22;2595;53.584;10.084;2023-03-21T17:01:49;10.30;99.90
5154;DHT22;2595;53.584;10.084;2023-03-21T17:04:16;10.30;99.90
5154;DHT22;2595;53.584;10.084;2023-03-21T17:06:52;10.30;99.90
5154;DHT22;2595;53.584;10.084;2023-03-21T17:09:20;10.30;99.90
5154;DHT22;2595;53.584;10.084;2023-03-21T17:11:47;10.30;99.90
5154;DHT22;2595;53.584;10.084;2023-03-21T17:14:14;10.30;99.90
5154;DHT22;2595;53.584;10.084;2023-03-21T17:16:43;10.30;99.90
5154;DHT22;2595;53.584;10.084;2023-03-21T17:19:17;10.30;99.90
5154;DHT22;2595;53.584;10.084;2023-03-21T17:21:43;10.30;99.90
5154;DHT22;2595;53.584;10.084;2023-03-21T17:24:09;10.30;99.90
5154;DHT22;2595;53.584;10.084;2023-03-21T17:26:35;10.30;99.90
5154;DHT22;2595;53.584;10.084;2023-03-21T17:29:01;10.30;99.90
5154;DHT22;2595;53.584;10.084;2023-03-21T17:31:32;10.30;99.90
5154;DHT22;2595;53.584;10.084;2023-03-21T17:33:58;10.30;99.90
5154;DHT22;2595;53.584;10.084;2023-03-21T17:36:31;10.30;99.90
5154;DHT22;2595;53.584;10.084;2023-03-21T17:38:57;10.30;99.90
5154;DHT22;2595;53.584;10.084;2023-03-21T17:41:23;10.30;99.90
5154;DHT22;2595;53.584;10.084;2023-03-21T17:43:49;10.30;99.90
5154;DHT22;2595;53.584;10.084;2023-03-21T17:46:18;10.30;99.90
5154;DHT22;2595;53.584;10.084;2023-03-21T17:48:45;10.40;99.90
5154;DHT22;2595;53.584;10.084;2023-03-21T17:51:11;10.30;99.90
5154;DHT22;2595;53.584;10.084;2023-03-21T17:53:43;10.30;99.90
5154;DHT22;2595;53.584;10.084;2023-03-21T17:56:14;10.40;99.90
5154;DHT22;2595;53.584;10.084;2023-03-21T17:58:40;10.30;99.90
5154;DHT22;2595;53.584;10.084;2023-03-21T18:01:06;10.40;99.90
5154;DHT22;2595;53.584;10.084;2023-03-21T18:03:31;10.40;99.90